Time;durP1;ratioP1;P1;durP2;ratioP2;P2;SDS_P1;SDS_P2;PMS_P1;PMS_P2;Temp;Humidity;BMP_temperature;BMP_pressure;BME280_temperature;BME280_humidity;BME280_pressure;Samples;Min_cycle;Max_cycle;Signal;HPM_P1;HPM_P2
2024/04/03 00:01:25;;;;;;;3.57;1.60;;;;;;;5.90;91.33;95308.72;5058572;28;20186;-85
2024/04/03 00:03:52;;;;;;;1.67;1.20;;;;;;;5.87;91.64;95322.19;5057100;28;20251;-85
2024/04/03 00:06:17;;;;;;;2.80;1.50;;;;;;;5.83;91.77;95317.50;5059101;28;20279;-85
2024/04/03 00:08:44;;;;;;;3.27;1.80;;;;;;;5.77;92.79;95313.88;5058702;28;20197;-85
2024/04/03 00:11:10;;;;;;;2.20;1.33;;;;;;;5.89;92.59;95319.34;5059306;28;20182;-85
2024/04/03 00:13:38;;;;;;;4.37;1.20;;;;;;;5.93;93.18;95323.19;5058600;28;20658;-85
2024/04/03 00:16:05;;;;;;;2.10;1.50;;;;;;;5.96;93.52;95317.56;5057544;28;20243;-85
2024/04/03 00:18:31;;;;;;;3.40;1.17;;;;;;;5.90;93.95;95324.41;5059111;28;20198;-85
2024/04/03 00:21:01;;;;;;;2.30;1.23;;;;;;;5.96;94.13;95320.19;5057469;28;20243;-85
2024/04/03 00:23:27;;;;;;;3.60;1.20;;;;;;;5.97;93.89;95320.00;5057584;28;20204;-85
2024/04/03 00:25:57;;;;;;;2.00;1.20;;;;;;;5.88;93.79;95312.53;5057638;28;20189;-85
2024/04/03 00:28:24;;;;;;;4.50;1.20;;;;;;;5.78;93.52;95314.69;5056931;28;20216;-85
2024/04/03 00:30:51;;;;;;;4.27;1.23;;;;;;;5.66;94.22;95314.44;5058002;28;20202;-85
2024/04/03 00:33:18;;;;;;;4.93;1.37;;;;;;;5.78;94.22;95315.50;5057717;28;20204;-85
2024/04/03 00:35:54;;;;;;;2.10;1.17;;;;;;;5.75;93.88;95313.25;5058899;28;20205;-85
2024/04/03 00:38:21;;;;;;;2.13;1.23;;;;;;;5.75;93.74;95313.25;5057341;28;20220;-85
2024/04/03 00:40:53;;;;;;;3.07;1.40;;;;;;;5.74;94.23;95314.25;5057890;28;20236;-85
2024/04/03 00:43:20;;;;;;;1.87;1.10;;;;;;;5.59;94.18;95313.59;5057345;28;20542;-84
2024/04/03 00:45:45;;;;;;;2.37;0.90;;;;;;;5.58;95.15;95301.53;5057795;28;20244;-86
2024/04/03 00:48:14;;;;;;;4.60;1.17;;;;;;;5.64;94.94;95308.59;5057962;28;20221;-85
2024/04/03 00:50:39;;;;;;;3.10;1.10;;;;;;;5.64;95.21;95300.75;5059420;28;20196;-85
2024/04/03 00:53:06;;;;;;;5.23;0.93;;;;;;;5.69;95.50;95301.00;5059975;28;20206;-85
2024/04/03 00:55:32;;;;;;;2.00;1.00;;;;;;;5.52;94.96;95299.69;5058802;28;20596;-85
2024/04/03 00:57:59;;;;;;;2.20;1.00;;;;;;;5.67;95.21;95302.97;5060029;28;20211;-85
2024/04/03 01:00:25;;;;;;;3.63;0.80;;;;;;;5.67;94.95;95296.97;5060212;28;20218;-85
2024/04/03 01:02:52;;;;;;;2.27;1.03;;;;;;;5.68;95.04;95286.31;5059304;28;20718;-86
2024/04/03 01:05:19;;;;;;;1.77;1.10;;;;;;;5.63;94.87;95287.88;5060094;28;20201;-85
2024/04/03 01:07:45;;;;;;;4.27;1.60;;;;;;;5.69;94.40;95294.94;5059510;28;20248;-86
2024/04/03 01:10:11;;;;;;;2.87;1.23;;;;;;;5.86;93.85;95280.56;5072477;28;20169;-84
2024/04/03 01:12:38;;;;;;;5.53;1.10;;;;;;;5.86;92.81;95273.50;5067794;28;20219;-85
2024/04/03 01:15:05;;;;;;;4.27;0.97;;;;;;;5.80;92.76;95274.28;5056090;28;20248;-85
2024/04/03 01:17:32;;;;;;;1.43;1.10;;;;;;;5.87;93.27;95277.75;5057703;28;20213;-85
2024/04/03 01:19:58;;;;;;;2.13;0.97;;;;;;;5.74;93.46;95267.22;5056472;28;20221;-85
2024/04/03 01:22:26;;;;;;;2.13;0.93;;;;;;;5.64;93.18;95263.38;5056329;28;20600;-85
2024/04/03 01:24:53;;;;;;;1.60;0.83;;;;;;;5.74;93.19;95263.81;5056354;28;20255;-85
2024/04/03 01:27:20;;;;;;;2.57;0.90;;;;;;;5.83;92.13;95260.03;5058164;28;20240;-85
2024/04/03 01:29:46;;;;;;;1.87;0.90;;;;;;;5.88;92.80;95263.66;5058898;28;20189;-85
2024/04/03 01:32:13;;;;;;;3.93;0.90;;;;;;;5.94;92.54;95267.31;5058916;28;20285;-84
2024/04/03 01:34:39;;;;;;;3.20;1.10;;;;;;;5.70;92.53;95271.22;5057312;28;20193;-85
2024/04/03 01:37:07;;;;;;;1.53;0.80;;;;;;;5.81;92.29;95267.25;5056880;28;20559;-84
2024/04/03 01:39:33;;;;;;;2.83;0.97;;;;;;;5.86;92.37;95264.91;5057257;28;20205;-85
2024/04/03 01:42:01;;;;;;;1.10;0.63;;;;;;;5.73;91.60;95257.78;5059023;28;20268;-85
2024/04/03 01:44:27;;;;;;;2.83;1.20;;;;;;;5.80;92.06;95260.41;5056477;28;20197;-84
2024/04/03 01:46:54;;;;;;;1.77;1.00;;;;;;;5.85;91.91;95252.81;5058808;28;20205;-85
2024/04/03 01:49:20;;;;;;;2.03;0.90;;;;;;;5.78;90.92;95250.16;5057453;28;20219;-85
2024/04/03 01:51:47;;;;;;;1.70;0.87;;;;;;;5.75;91.74;95249.75;5058669;28;20189;-85
2024/04/03 01:54:12;;;;;;;3.87;1.23;;;;;;;5.72;91.45;95244.94;5057786;28;20228;-85
2024/04/03 01:56:39;;;;;;;4.40;0.90;;;;;;;5.88;91.89;95234.91;5058515;28;20681;-85
2024/04/03 01:59:06;;;;;;;7.93;1.00;;;;;;;5.97;92.70;95236.38;5057287;28;20646;-86
2024/04/03 02:01:33;;;;;;;2.83;1.03;;;;;;;6.03;92.80;95238.19;5057867;28;20224;-85
2024/04/03 02:03:59;;;;;;;1.60;0.97;;;;;;;5.90;92.30;95245.19;5058889;28;20186;-85
2024/04/03 02:06:26;;;;;;;3.60;1.13;;;;;;;5.89;92.87;95236.53;5057374;28;20642;-86
2024/04/03 02:08:51;;;;;;;2.27;0.90;;;;;;;5.98;93.10;95229.31;5057901;28;20201;-85
2024/04/03 02:11:18;;;;;;;1.80;1.10;;;;;;;5.84;93.24;95227.66;5059891;28;20645;-85
2024/04/03 02:13:44;;;;;;;1.90;1.03;;;;;;;5.83;93.13;95226.88;5059099;28;20248;-86
2024/04/03 02:16:12;;;;;;;3.40;0.93;;;;;;;5.78;93.74;95228.44;5060294;28;20654;-85
2024/04/03 02:18:38;;;;;;;2.93;1.07;;;;;;;5.77;93.72;95219.81;5061538;28;20193;-85
2024/04/03 02:21:05;;;;;;;2.00;0.90;;;;;;;5.78;94.29;95226.66;5064644;28;20213;-85
2024/04/03 02:23:31;;;;;;;1.17;1.00;;;;;;;5.71;95.31;95219.78;5066703;28;20272;-85
2024/04/03 02:25:58;;;;;;;1.70;0.87;;;;;;;5.80;94.86;95214.19;5056416;28;20186;-85
2024/04/03 02:28:24;;;;;;;2.17;0.90;;;;;;;5.83;94.77;95216.41;5054732;28;20229;-84
2024/04/03 02:31:00;;;;;;;2.37;0.87;;;;;;;5.94;94.06;95221.06;5054726;28;20245;-85
2024/04/03 02:33:27;;;;;;;2.80;1.03;;;;;;;5.93;92.73;95219.44;5054410;28;20200;-85
2024/04/03 02:35:54;;;;;;;1.77;0.90;;;;;;;5.98;93.17;95205.78;5054965;28;20598;-85
2024/04/03 02:38:20;;;;;;;1.90;0.80;;;;;;;5.95;92.01;95196.53;5054781;28;20218;-84
2024/04/03 02:40:47;;;;;;;5.40;1.03;;;;;;;6.01;92.31;95194.94;5056027;28;20244;-85
2024/04/03 02:43:13;;;;;;;2.73;0.97;;;;;;;6.14;92.84;95176.63;5054333;28;20189;-85
2024/04/03 02:45:40;;;;;;;2.10;0.60;;;;;;;6.04;93.11;95179.69;5055782;28;20255;-85
2024/04/03 02:48:06;;;;;;;4.40;0.77;;;;;;;6.22;92.22;95176.44;5054851;28;20224;-85
2024/04/03 02:50:35;;;;;;;4.27;1.60;;;;;;;6.28;92.73;95170.41;5054338;28;20240;-84
2024/04/03 02:53:01;;;;;;;3.77;0.87;;;;;;;6.23;92.79;95162.38;5055705;28;20201;-85
2024/04/03 02:55:27;;;;;;;2.73;0.80;;;;;;;6.40;91.78;95158.31;5053949;28;20202;-85
2024/04/03 02:57:53;;;;;;;1.80;0.90;;;;;;;6.43;91.59;95162.34;5056389;28;20209;-85
2024/04/03 03:00:20;;;;;;;105.00;47.73;;;;;;;6.37;91.26;95161.34;5054441;28;20213;-85
2024/04/03 03:02:47;;;;;;;55.97;27.73;;;;;;;6.24;91.96;95158.75;5054488;28;20669;-84
2024/04/03 03:05:14;;;;;;;31.57;15.90;;;;;;;6.37;92.14;95160.56;5054177;28;20224;-86
2024/04/03 03:07:41;;;;;;;7.90;3.73;;;;;;;6.31;92.22;95150.88;5054687;28;20213;-85
2024/04/03 03:10:08;;;;;;;7.27;2.73;;;;;;;6.29;91.46;95156.31;5055342;28;20186;-85
2024/04/03 03:12:34;;;;;;;4.63;2.23;;;;;;;6.42;91.16;95150.28;5054441;28;20728;-85
2024/04/03 03:15:01;;;;;;;3.63;1.47;;;;;;;6.42;91.39;95142.44;5056378;28;20201;-85
2024/04/03 03:17:27;;;;;;;1.77;1.23;;;;;;;6.49;91.04;95143.25;5056266;28;20213;-85
2024/04/03 03:19:53;;;;;;;2.30;0.70;;;;;;;6.49;90.95;95141.41;5058907;28;20251;-85
2024/04/03 03:22:20;;;;;;;3.60;0.90;;;;;;;6.49;90.91;95128.31;5061666;28;20198;-85
2024/04/03 03:24:49;;;;;;;3.53;0.90;;;;;;;6.40;91.37;95129.56;5060696;28;20225;-85
2024/04/03 03:27:15;;;;;;;2.20;0.90;;;;;;;6.46;91.41;95128.75;5058752;28;20221;-85
2024/04/03 03:29:42;;;;;;;3.97;1.03;;;;;;;6.46;92.20;95126.13;5060247;28;20188;-85
2024/04/03 03:32:08;;;;;;;3.40;1.00;;;;;;;6.40;92.46;95120.88;5059089;28;20289;-85
2024/04/03 03:34:34;;;;;;;6.87;1.00;;;;;;;6.36;93.62;95125.75;5058208;28;20212;-86
2024/04/03 03:37:01;;;;;;;4.93;1.10;;;;;;;6.37;93.55;95122.09;5060036;28;20225;-85
2024/04/03 03:39:28;;;;;;;3.60;1.63;;;;;;;6.41;93.74;95125.13;5058925;28;20292;-85
2024/04/03 03:41:57;;;;;;;5.10;1.27;;;;;;;6.40;93.29;95115.66;5059699;28;20672;-85
2024/04/03 03:44:24;;;;;;;3.27;1.10;;;;;;;6.28;93.84;95116.28;5057624;28;20600;-85
2024/04/03 03:46:51;;;;;;;1.47;0.90;;;;;;;6.30;94.09;95107.44;5058849;28;20209;-85
2024/04/03 03:54:46;;;;;;;3.27;1.00;;;;;;;6.31;94.60;95114.28;5058552;28;20197;-85
2024/04/03 03:57:15;;;;;;;1.83;1.00;;;;;;;6.21;95.44;95110.28;5060326;28;20608;-85
2024/04/03 03:59:42;;;;;;;2.27;1.13;;;;;;;6.19;96.26;95122.75;5060882;28;20194;-85
2024/04/03 04:02:09;;;;;;;4.20;1.10;;;;;;;6.24;96.71;95116.91;5058979;28;20279;-85
2024/04/03 04:04:35;;;;;;;2.50;1.30;;;;;;;6.19;96.38;95107.06;5059296;28;20228;-85
2024/04/03 04:07:02;;;;;;;1.47;0.93;;;;;;;6.30;96.60;95118.72;5061201;28;20209;-85
2024/04/03 04:09:28;;;;;;;5.63;1.47;;;;;;;6.10;97.10;95107.47;5060906;28;20190;-85
2024/04/03 04:11:55;;;;;;;2.83;1.33;;;;;;;6.24;97.33;95107.25;5060667;28;20750;-86
2024/04/03 04:14:22;;;;;;;7.37;1.10;;;;;;;6.24;97.11;95112.47;5059358;28;20194;-85
2024/04/03 04:16:49;;;;;;;3.93;1.50;;;;;;;6.33;97.28;95110.44;5059999;28;20216;-85
2024/04/03 04:19:15;;;;;;;1.43;1.10;;;;;;;6.15;96.89;95108.47;5060256;28;20204;-86
2024/04/03 04:21:41;;;;;;;4.63;1.90;;;;;;;6.14;97.90;95109.47;5062469;28;20213;-86
2024/04/03 04:24:07;;;;;;;5.30;2.03;;;;;;;6.12;97.61;95110.69;5065941;28;20198;-84
2024/04/03 04:26:34;;;;;;;4.13;2.90;;;;;;;6.13;97.61;95110.50;5073539;28;20304;-84
2024/04/03 04:29:00;;;;;;;7.80;3.23;;;;;;;6.09;97.31;95117.13;5060318;28;20561;-85
2024/04/03 04:31:28;;;;;;;4.37;2.47;;;;;;;6.14;97.89;95119.94;5058482;28;20248;-84
2024/04/03 04:33:54;;;;;;;4.27;2.47;;;;;;;6.10;97.90;95123.97;5058027;28;20240;-85
2024/04/03 04:36:22;;;;;;;4.47;2.00;;;;;;;6.14;97.96;95117.31;5056981;28;20205;-85
2024/04/03 04:38:47;;;;;;;4.90;1.80;;;;;;;6.08;97.20;95122.56;5057080;28;20609;-85
2024/04/03 04:41:14;;;;;;;5.27;1.47;;;;;;;6.08;97.33;95122.56;5056832;28;20221;-85
2024/04/03 04:43:40;;;;;;;2.47;1.53;;;;;;;6.04;97.08;95121.34;5058877;28;20214;-86
2024/04/03 04:46:07;;;;;;;3.17;1.53;;;;;;;6.11;96.52;95120.31;5040141;28;20190;-86
2024/04/03 04:48:34;;;;;;;4.47;1.97;;;;;;;6.15;96.73;95124.16;5039171;28;20197;-85
2024/04/03 04:51:02;;;;;;;7.77;2.07;;;;;;;6.05;97.05;95115.09;5037297;28;20255;-85
2024/04/03 04:53:28;;;;;;;4.03;2.80;;;;;;;6.00;97.32;95131.41;5036383;28;20206;-84
2024/04/03 04:55:55;;;;;;;6.13;1.80;;;;;;;6.06;97.05;95124.56;5036742;28;20194;-85
2024/04/03 04:58:21;;;;;;;4.37;1.70;;;;;;;6.02;97.00;95129.38;5036442;28;20306;-85
2024/04/03 05:00:49;;;;;;;3.70;1.23;;;;;;;6.00;97.64;95134.00;5039169;28;20293;-85
2024/04/03 05:03:15;;;;;;;4.07;2.27;;;;;;;6.10;97.42;95133.59;5037192;28;20210;-85
2024/04/03 05:05:43;;;;;;;2.83;1.77;;;;;;;6.07;97.33;95137.44;5038984;28;20530;-85
2024/04/03 05:08:10;;;;;;;3.10;1.80;;;;;;;6.08;97.90;95140.84;5038375;28;20222;-86
2024/04/03 05:10:37;;;;;;;2.67;2.00;;;;;;;6.03;97.77;95141.47;5038856;28;20186;-86
2024/04/03 05:13:03;;;;;;;5.23;1.50;;;;;;;5.99;98.58;95140.25;5038052;28;20194;-84
2024/04/03 05:15:30;;;;;;;5.87;1.30;;;;;;;6.01;98.78;95140.84;5038232;28;20248;-85
2024/04/03 05:17:56;;;;;;;1.40;1.20;;;;;;;6.02;99.05;95142.44;5036425;28;20210;-85
2024/04/03 05:20:23;;;;;;;7.10;1.77;;;;;;;6.24;98.02;95137.81;5039300;28;20198;-85
2024/04/03 05:22:50;;;;;;;1.80;1.10;;;;;;;6.25;97.83;95137.59;5039045;28;20213;-85
2024/04/03 05:25:18;;;;;;;2.50;1.37;;;;;;;6.33;96.76;95148.88;5037249;28;20190;-85
2024/04/03 05:27:44;;;;;;;3.17;1.20;;;;;;;6.33;97.14;95148.88;5038505;28;20785;-84
2024/04/03 05:30:11;;;;;;;2.47;1.00;;;;;;;6.33;96.86;95148.88;5039518;28;20193;-86
2024/04/03 05:32:37;;;;;;;2.50;1.03;;;;;;;6.31;96.10;95148.28;5038443;28;20196;-85
2024/04/03 05:35:05;;;;;;;5.30;0.90;;;;;;;6.37;95.16;95153.50;5039397;28;20190;-85
2024/04/03 05:37:31;;;;;;;1.27;0.60;;;;;;;6.39;94.41;95155.91;5039379;28;20220;-85
2024/04/03 05:39:59;;;;;;;2.63;0.80;;;;;;;6.46;94.04;95147.06;5037568;28;20240;-85
2024/04/03 05:42:25;;;;;;;2.27;0.90;;;;;;;6.44;94.58;95149.06;5038822;28;20215;-86
2024/04/03 05:44:51;;;;;;;1.37;0.90;;;;;;;6.53;94.01;95147.03;5038995;28;20231;-87
2024/04/03 05:47:17;;;;;;;1.27;1.00;;;;;;;6.52;93.31;95132.34;5038358;28;20547;-86
2024/04/03 05:49:44;;;;;;;2.30;1.00;;;;;;;6.55;93.98;95137.19;5039547;28;20243;-84
2024/04/03 05:52:10;;;;;;;1.53;0.90;;;;;;;6.69;95.33;95138.75;5052896;28;20228;-86
2024/04/03 05:54:37;;;;;;;2.03;1.10;;;;;;;6.59;94.76;95135.75;5058174;28;20193;-85
2024/04/03 05:57:04;;;;;;;1.80;1.07;;;;;;;6.64;95.40;95134.13;5056501;28;20222;-86
2024/04/03 05:59:31;;;;;;;2.13;1.20;;;;;;;6.81;95.28;95137.88;5055074;28;20297;-85
2024/04/03 06:01:57;;;;;;;7.07;1.50;;;;;;;6.72;95.14;95123.44;5056394;28;20586;-85
2024/04/03 06:04:24;;;;;;;1.13;0.93;;;;;;;6.84;94.63;95103.47;5057662;28;20246;-86
2024/04/03 06:06:52;;;;;;;3.00;1.20;;;;;;;6.84;94.28;95116.56;5056577;28;20316;-86
2024/04/03 06:09:19;;;;;;;4.97;1.00;;;;;;;6.92;93.89;95116.34;5058183;28;20649;-86
2024/04/03 06:11:45;;;;;;;1.40;1.17;;;;;;;6.92;92.79;95112.91;5057988;28;20554;-86
2024/04/03 06:14:13;;;;;;;2.07;0.90;;;;;;;6.94;92.78;95121.34;5056232;28;20205;-86
2024/04/03 06:16:38;;;;;;;4.87;1.20;;;;;;;7.05;92.79;95123.31;5056469;28;20222;-86
2024/04/03 06:19:09;;;;;;;4.70;1.00;;;;;;;7.08;92.95;95122.91;5057138;28;20197;-86
2024/04/03 06:21:35;;;;;;;2.00;1.23;;;;;;;7.12;92.77;95146.88;5054298;28;20221;-85
2024/04/03 06:24:03;;;;;;;2.20;1.30;;;;;;;7.06;92.50;95151.13;5055866;28;20193;-85
2024/04/03 06:26:28;;;;;;;1.50;0.90;;;;;;;6.98;91.85;95149.53;5054927;28;20241;-86
2024/04/03 06:28:55;;;;;;;1.77;0.93;;;;;;;6.96;92.46;95175.09;5055792;28;20200;-85
2024/04/03 06:31:23;;;;;;;3.33;1.00;;;;;;;7.05;92.95;95173.06;5055592;28;20197;-86
2024/04/03 06:33:51;;;;;;;4.03;1.23;;;;;;;7.03;94.09;95182.94;5056186;28;20206;-85
2024/04/03 06:36:18;;;;;;;2.93;1.43;;;;;;;7.00;94.35;95185.97;5058299;28;20194;-86
2024/04/03 06:38:44;;;;;;;3.87;1.90;;;;;;;6.93;94.54;95175.50;5057104;28;20224;-85
2024/04/03 06:41:11;;;;;;;5.87;1.93;;;;;;;6.95;95.94;95178.72;5057616;28;20221;-85
2024/04/03 06:43:37;;;;;;;3.83;2.03;;;;;;;7.05;95.84;95178.28;5057172;28;20205;-85
2024/04/03 06:46:04;;;;;;;3.47;1.83;;;;;;;7.12;96.73;95171.22;5058387;28;20662;-84
2024/04/03 06:48:32;;;;;;;2.53;1.87;;;;;;;7.17;97.77;95175.84;5057561;28;20252;-86
2024/04/03 06:50:59;;;;;;;2.93;1.27;;;;;;;7.24;97.82;95180.03;5056713;28;20198;-85
2024/04/03 06:53:25;;;;;;;1.60;1.00;;;;;;;7.28;98.52;95180.44;5056642;28;20301;-85
2024/04/03 06:55:55;;;;;;;2.97;1.13;;;;;;;7.21;98.77;95177.03;5059746;28;20227;-84
2024/04/03 06:58:21;;;;;;;7.50;1.50;;;;;;;7.19;100.00;95181.69;5057209;28;20240;-85
2024/04/03 07:00:48;;;;;;;6.43;1.90;;;;;;;7.15;100.00;95186.53;5060494;28;20204;-84
2024/04/03 07:03:14;;;;;;;6.17;1.80;;;;;;;7.25;100.00;95175.59;5059430;28;20197;-85
2024/04/03 07:05:44;;;;;;;1.80;1.43;;;;;;;7.16;100.00;95174.25;5062292;28;20202;-85
2024/04/03 07:08:09;;;;;;;4.33;1.80;;;;;;;7.22;100.00;95165.53;5062822;28;20248;-85
2024/04/03 07:10:36;;;;;;;2.40;1.93;;;;;;;7.19;100.00;95164.13;5061491;28;20194;-85
2024/04/03 07:13:03;;;;;;;3.60;1.80;;;;;;;7.20;100.00;95164.94;5062970;28;20185;-85
2024/04/03 07:15:31;;;;;;;2.67;1.60;;;;;;;7.30;100.00;95162.69;5061439;28;20213;-85
2024/04/03 07:17:57;;;;;;;2.57;1.40;;;;;;;7.37;100.00;95160.84;5063581;28;20271;-85
2024/04/03 07:20:25;;;;;;;3.23;1.63;;;;;;;7.41;100.00;95151.56;5062152;28;20193;-87
2024/04/03 07:22:53;;;;;;;47.43;4.30;;;;;;;7.54;100.00;95148.84;5062763;28;20652;-85
2024/04/03 07:25:20;;;;;;;1.87;1.17;;;;;;;7.57;100.00;95151.88;5062779;28;20196;-86
2024/04/03 07:27:46;;;;;;;3.13;1.13;;;;;;;7.61;100.00;95142.56;5061567;28;20217;-85
2024/04/03 07:30:13;;;;;;;4.33;1.50;;;;;;;7.66;99.45;95137.50;5063803;28;20243;-86
2024/04/03 07:32:40;;;;;;;2.67;1.33;;;;;;;7.64;100.00;95142.16;5063503;28;20205;-86
2024/04/03 07:35:07;;;;;;;7.20;1.63;;;;;;;7.83;100.00;95139.59;5065767;28;20190;-85
2024/04/03 07:37:36;;;;;;;1.90;1.20;;;;;;;7.95;100.00;95145.78;5066827;28;20218;-86
2024/04/03 07:40:08;;;;;;;1.30;0.90;;;;;;;8.04;100.00;95131.38;5074202;28;20196;-83
2024/04/03 07:42:36;;;;;;;2.77;1.13;;;;;;;8.07;100.00;95138.81;5075477;28;20225;-85
2024/04/03 07:45:05;;;;;;;3.17;1.10;;;;;;;8.17;100.00;95124.19;5066406;28;20198;-85
2024/04/03 07:47:31;;;;;;;4.40;2.90;;;;;;;8.22;98.94;95128.78;5068901;28;20252;-86
2024/04/03 07:49:58;;;;;;;3.13;1.60;;;;;;;8.28;98.72;95141.88;5069517;28;20272;-86
2024/04/03 07:52:24;;;;;;;4.47;2.27;;;;;;;8.24;99.09;95130.19;5070342;28;20201;-86
2024/04/03 07:54:51;;;;;;;4.47;1.40;;;;;;;8.37;99.57;95121.44;5075832;28;20212;-86
2024/04/03 07:57:18;;;;;;;1.47;1.17;;;;;;;8.54;99.39;95126.94;5066994;28;20220;-85
2024/04/03 07:59:46;;;;;;;7.33;2.07;;;;;;;8.71;98.57;95118.25;5068692;28;20190;-86
2024/04/03 08:02:12;;;;;;;1.07;0.90;;;;;;;8.99;96.71;95115.91;5074559;28;20274;-84
2024/04/03 08:04:39;;;;;;;2.67;1.27;;;;;;;9.00;95.46;95106.22;5075944;28;20188;-83
2024/04/03 08:07:04;;;;;;;2.97;1.07;;;;;;;9.07;93.86;95114.00;5064416;28;20210;-85
2024/04/03 08:09:32;;;;;;;0.97;0.60;;;;;;;9.22;93.49;95103.94;5062362;28;20657;-86
2024/04/03 08:11:58;;;;;;;2.60;0.70;;;;;;;9.34;92.89;95107.41;5062010;28;20243;-86
2024/04/03 08:14:26;;;;;;;2.30;0.77;;;;;;;9.55;91.19;95102.44;5063342;28;20196;-85
2024/04/03 08:16:53;;;;;;;1.73;1.03;;;;;;;9.77;90.75;95099.31;5062939;28;20281;-86
2024/04/03 08:19:19;;;;;;;5.07;3.37;;;;;;;9.95;88.20;95099.22;5064592;28;20599;-86
2024/04/03 08:21:46;;;;;;;2.13;1.20;;;;;;;10.03;86.71;95099.72;5062366;28;20227;-85
2024/04/03 08:24:13;;;;;;;1.50;1.00;;;;;;;10.14;85.52;95098.16;5063155;28;20723;-85
2024/04/03 08:26:39;;;;;;;1.73;0.87;;;;;;;10.27;85.35;95096.09;5064027;28;20213;-86
2024/04/03 08:29:06;;;;;;;2.90;1.10;;;;;;;10.35;84.71;95095.75;5062589;28;20590;-86
2024/04/03 08:31:33;;;;;;;0.90;0.80;;;;;;;10.43;83.12;95097.25;5061938;28;20548;-85
2024/04/03 08:34:00;;;;;;;1.50;1.07;;;;;;;10.37;82.35;95098.97;5061942;28;20672;-85
2024/04/03 08:36:25;;;;;;;2.60;0.70;;;;;;;10.46;81.60;95091.50;5061494;28;20282;-85
2024/04/03 08:38:52;;;;;;;1.63;1.00;;;;;;;10.60;82.65;95082.34;5062813;28;20190;-86
2024/04/03 08:41:18;;;;;;;0.77;0.60;;;;;;;10.64;80.39;95085.31;5061486;28;20224;-85
2024/04/03 08:43:45;;;;;;;2.37;0.70;;;;;;;10.86;80.26;95079.22;5061161;28;20194;-85
2024/04/03 08:46:11;;;;;;;1.43;0.70;;;;;;;10.98;78.65;95081.81;5063004;28;20707;-88
2024/04/03 08:48:39;;;;;;;3.70;0.73;;;;;;;11.16;78.61;95075.56;5060453;28;20190;-86
2024/04/03 08:51:05;;;;;;;2.53;0.90;;;;;;;11.10;79.44;95085.22;5061917;28;20193;-83
2024/04/03 08:53:32;;;;;;;0.97;0.60;;;;;;;11.23;78.77;95079.66;5061455;28;20212;-85
2024/04/03 08:55:58;;;;;;;6.67;0.60;;;;;;;11.31;78.31;95071.41;5054363;28;20546;-86
2024/04/03 08:58:26;;;;;;;0.90;0.57;;;;;;;11.54;76.92;95067.84;5043078;28;20203;-85
2024/04/03 09:00:52;;;;;;;1.00;0.87;;;;;;;11.66;76.53;95069.41;5042571;28;20195;-86
2024/04/03 09:03:19;;;;;;;0.83;0.43;;;;;;;11.86;76.22;95070.78;5042785;28;20221;-86
2024/04/03 09:05:47;;;;;;;1.23;0.60;;;;;;;11.90;75.83;95061.38;5042706;28;20210;-87
2024/04/03 09:08:14;;;;;;;0.77;0.43;;;;;;;11.89;74.45;95070.31;5041705;28;20214;-85
2024/04/03 09:10:44;;;;;;;1.80;0.77;;;;;;;12.20;75.55;95061.84;5044905;28;20194;-86
2024/04/03 09:13:11;;;;;;;0.90;0.60;;;;;;;12.26;75.32;95069.59;5041671;28;20188;-84
2024/04/03 09:15:37;;;;;;;0.57;0.57;;;;;;;12.30;73.82;95056.69;5039619;28;20190;-86
2024/04/03 09:18:06;;;;;;;1.33;0.80;;;;;;;12.36;74.31;95068.97;5039244;28;20267;-85
2024/04/03 09:20:32;;;;;;;2.50;0.73;;;;;;;12.38;73.87;95074.78;5037644;28;20261;-85
2024/04/03 09:23:00;;;;;;;2.83;0.90;;;;;;;12.41;72.98;95083.03;5039044;28;20634;-85
2024/04/03 09:25:26;;;;;;;0.60;0.60;;;;;;;12.22;73.88;95080.88;5040019;28;20212;-85
2024/04/03 09:27:59;;;;;;;1.70;0.60;;;;;;;12.41;74.57;95077.75;5038845;28;20226;-86
2024/04/03 09:30:25;;;;;;;5.90;0.90;;;;;;;12.44;74.46;95081.72;5042184;28;20186;-85
2024/04/03 09:32:56;;;;;;;2.00;0.60;;;;;;;12.34;74.74;95079.78;5038338;28;20190;-85
2024/04/03 09:35:25;;;;;;;3.37;0.80;;;;;;;12.31;73.70;95074.16;5041774;28;20226;-88
2024/04/03 09:37:52;;;;;;;1.10;0.73;;;;;;;12.35;75.15;95073.44;5040939;28;20327;-88
2024/04/03 09:40:20;;;;;;;4.00;0.70;;;;;;;12.38;76.11;95077.44;5039507;28;20198;-87
2024/04/03 09:42:47;;;;;;;1.20;0.60;;;;;;;12.33;75.67;95074.72;5039401;28;20257;-86
2024/04/03 09:45:13;;;;;;;2.83;0.50;;;;;;;12.10;75.74;95078.34;5040362;28;20194;-85
2024/04/03 09:47:40;;;;;;;0.90;0.50;;;;;;;12.33;76.81;95082.63;5039529;28;20800;-85
2024/04/03 09:50:06;;;;;;;0.50;0.40;;;;;;;12.15;77.06;95080.25;5038882;28;20261;-87
2024/04/03 09:52:33;;;;;;;3.20;0.80;;;;;;;12.13;78.14;95088.41;5038022;28;20190;-88
2024/04/03 09:54:59;;;;;;;0.73;0.40;;;;;;;12.11;78.22;95085.19;5036416;28;20309;-88
2024/04/03 09:57:27;;;;;;;1.27;0.30;;;;;;;12.15;77.54;95070.50;5037814;28;20214;-86
2024/04/03 09:59:53;;;;;;;1.37;0.63;;;;;;;12.08;78.37;95084.88;5038745;28;20191;-87
2024/04/03 10:02:20;;;;;;;2.67;0.70;;;;;;;12.28;79.89;95078.06;5037083;28;20237;-87
2024/04/03 10:04:48;;;;;;;2.17;0.60;;;;;;;12.49;79.17;95084.44;5040326;28;20659;-87
2024/04/03 10:07:18;;;;;;;3.17;0.60;;;;;;;12.58;78.43;95075.06;5041488;28;20222;-84
2024/04/03 10:09:43;;;;;;;2.27;0.60;;;;;;;12.61;78.72;95073.78;5039144;28;20194;-87
2024/04/03 10:12:16;;;;;;;0.80;0.50;;;;;;;12.27;76.81;95083.59;5034635;28;20715;-88
2024/04/03 10:14:43;;;;;;;2.27;0.23;;;;;;;12.29;77.41;95084.16;5041049;28;20205;-88
2024/04/03 10:17:14;;;;;;;0.47;0.40;;;;;;;12.02;79.00;95088.50;5038467;28;20220;-87
2024/04/03 10:19:41;;;;;;;0.77;0.30;;;;;;;11.89;80.75;95091.44;5039931;28;20229;-87
2024/04/03 10:22:08;;;;;;;1.60;0.40;;;;;;;11.77;81.08;95096.78;5040205;28;20210;-87
2024/04/03 10:24:33;;;;;;;1.90;0.47;;;;;;;11.93;81.38;95088.06;5040964;28;20194;-87
2024/04/03 10:27:00;;;;;;;1.70;0.37;;;;;;;11.78;82.57;95096.53;5041673;28;20260;-87
2024/04/03 10:29:26;;;;;;;0.83;0.53;;;;;;;11.96;83.21;95092.06;5042604;28;20205;-87
2024/04/03 10:31:54;;;;;;;1.60;0.70;;;;;;;11.92;84.08;95091.78;5044872;28;20197;-87
2024/04/03 10:34:20;;;;;;;1.13;0.40;;;;;;;12.23;84.41;95087.75;5041520;28;20202;-89
2024/04/03 10:36:47;;;;;;;2.63;0.87;;;;;;;12.39;84.65;95089.59;5040959;28;20253;-89
2024/04/03 10:39:13;;;;;;;0.50;0.50;;;;;;;12.32;82.50;95091.63;5041836;28;20202;-89
2024/04/03 10:41:40;;;;;;;1.70;0.50;;;;;;;12.06;81.65;95093.06;5042551;28;20221;-89
2024/04/03 10:44:06;;;;;;;0.50;0.40;;;;;;;12.16;83.09;95097.69;5043483;28;20255;-85
2024/04/03 10:46:33;;;;;;;1.10;0.30;;;;;;;12.21;83.24;95103.03;5045773;28;20218;-85
2024/04/03 10:49:00;;;;;;;1.90;0.40;;;;;;;12.35;82.50;95099.03;5041273;28;20217;-90
2024/04/03 10:51:27;;;;;;;0.33;0.27;;;;;;;12.08;82.95;95098.91;5038298;28;20197;-89
2024/04/03 10:53:55;;;;;;;0.77;0.40;;;;;;;12.02;83.04;95102.47;5047037;28;20194;-86
2024/04/03 10:56:24;;;;;;;1.57;1.07;;;;;;;11.90;82.40;95101.78;5054416;28;20289;-86
2024/04/03 10:58:50;;;;;;;3.97;2.60;;;;;;;12.08;83.36;95106.00;5042291;28;20266;-87
2024/04/03 11:01:17;;;;;;;8.07;4.77;;;;;;;12.17;82.72;95104.56;5042494;28;20647;-86
2024/04/03 11:03:43;;;;;;;1.97;1.73;;;;;;;12.19;82.25;95107.75;5042455;28;20598;-88
2024/04/03 11:06:12;;;;;;;0.47;0.40;;;;;;;11.82;81.95;95110.06;5040900;28;20204;-88
2024/04/03 11:08:39;;;;;;;0.63;0.40;;;;;;;11.77;82.79;95113.41;5043123;28;20218;-89
2024/04/03 11:11:06;;;;;;;0.40;0.30;;;;;;;12.03;84.27;95119.91;5057853;28;20661;-89
2024/04/03 11:13:32;;;;;;;0.27;0.27;;;;;;;12.05;84.25;95114.38;5060408;28;20200;-89
2024/04/03 11:15:59;;;;;;;0.50;0.17;;;;;;;11.84;83.71;95118.53;5062483;28;20197;-88
2024/04/03 11:18:25;;;;;;;0.20;0.20;;;;;;;11.73;83.91;95111.47;5059607;28;20690;-88
2024/04/03 11:20:52;;;;;;;1.73;0.30;;;;;;;11.59;84.54;95118.06;5060066;28;20189;-87
2024/04/03 11:23:19;;;;;;;0.53;0.30;;;;;;;11.60;85.32;95124.91;5063903;28;20240;-88
2024/04/03 11:25:46;;;;;;;0.10;0.10;;;;;;;11.46;85.18;95127.03;5059187;28;20193;-88
2024/04/03 11:28:13;;;;;;;0.20;0.20;;;;;;;11.57;84.79;95118.31;5061431;28;20213;-86
2024/04/03 11:30:41;;;;;;;0.60;0.30;;;;;;;11.69;83.71;95113.78;5063274;28;20213;-88
2024/04/03 11:33:06;;;;;;;0.30;0.30;;;;;;;11.76;81.83;95124.22;5062936;28;20194;-88
2024/04/03 11:35:33;;;;;;;1.90;0.30;;;;;;;11.84;81.67;95115.09;5060849;28;20243;-88
2024/04/03 11:38:00;;;;;;;0.43;0.23;;;;;;;11.71;79.84;95117.00;5060778;28;20347;-88
2024/04/03 11:40:29;;;;;;;0.97;0.30;;;;;;;11.73;82.04;95106.22;5057876;28;20263;-88
2024/04/03 11:42:54;;;;;;;0.20;0.20;;;;;;;11.77;81.63;95110.78;5060273;28;20239;-87